sensor_id;sensor_type;location;lat;lon;timestamp;temperature;humidity
20750;DHT22;10535;50.664;4.564;2023-08-07T00:01:55;12.50;99.90
20750;DHT22;10535;50.664;4.564;2023-08-07T00:04:20;12.50;99.90
20750;DHT22;10535;50.664;4.564;2023-08-07T00:06:46;12.50;99.90
20750;DHT22;10535;50.664;4.564;2023-08-07T00:09:11;12.40;99.90
20750;DHT22;10535;50.664;4.564;2023-08-07T00:11:37;12.30;99.90
20750;DHT22;10535;50.664;4.564;2023-08-07T00:14:03;12.30;99.90
20750;DHT22;10535;50.664;4.564;2023-08-07T00:16:29;12.40;99.90
20750;DHT22;10535;50.664;4.564;2023-08-07T00:18:54;12.40;99.90
20750;DHT22;10535;50.664;4.564;2023-08-07T00:21:22;12.30;99.90
20750;DHT22;10535;50.664;4.564;2023-08-07T00:23:48;12.30;99.90
20750;DHT22;10535;50.664;4.564;2023-08-07T00:26:15;12.40;99.90
20750;DHT22;10535;50.664;4.564;2023-08-07T00:28:41;12.30;99.90
20750;DHT22;10535;50.664;4.564;2023-08-07T00:31:06;12.30;99.90
20750;DHT22;10535;50.664;4.564;2023-08-07T00:33:33;12.30;99.90
20750;DHT22;10535;50.664;4.564;2023-08-07T00:35:59;12.30;99.90
20750;DHT22;10535;50.664;4.564;2023-08-07T00:38:25;12.40;99.90
20750;DHT22;10535;50.664;4.564;2023-08-07T00:40:51;12.40;99.90
20750;DHT22;10535;50.664;4.564;2023-08-07T00:43:16;12.40;99.90
20750;DHT22;10535;50.664;4.564;2023-08-07T00:45:43;12.40;99.90
20750;DHT22;10535;50.664;4.564;2023-08-07T00:48:11;12.60;99.90
20750;DHT22;10535;50.664;4.564;2023-08-07T00:50:39;12.60;99.90
20750;DHT22;10535;50.664;4.564;2023-08-07T00:53:07;12.70;99.90
20750;DHT22;10535;50.664;4.564;2023-08-07T00:55:33;12.60;99.90
20750;DHT22;10535;50.664;4.564;2023-08-07T00:58:00;12.60;99.90
20750;DHT22;10535;50.664;4.564;2023-08-07T01:00:28;12.50;99.90
20750;DHT22;10535;50.664;4.564;2023-08-07T01:02:56;12.50;99.90
20750;DHT22;10535;50.664;4.564;2023-08-07T01:05:24;12.50;99.90
20750;DHT22;10535;50.664;4.564;2023-08-07T01:07:53;12.50;99.90
20750;DHT22;10535;50.664;4.564;2023-08-07T01:10:29;12.40;99.90
20750;DHT22;10535;50.664;4.564;2023-08-07T01:13:08;12.40;99.90
20750;DHT22;10535;50.664;4.564;2023-08-07T01:15:39;12.30;99.90
20750;DHT22;10535;50.664;4.564;2023-08-07T01:18:06;12.40;99.90
20750;DHT22;10535;50.664;4.564;2023-08-07T01:20:33;12.40;99.90
20750;DHT22;10535;50.664;4.564;2023-08-07T01:22:58;12.30;99.90
20750;DHT22;10535;50.664;4.564;2023-08-07T01:25:24;12.20;99.90
20750;DHT22;10535;50.664;4.564;2023-08-07T01:28:00;12.10;99.90
20750;DHT22;10535;50.664;4.564;2023-08-07T01:30:35;12.20;99.90
20750;DHT22;10535;50.664;4.564;2023-08-07T01:35:57;12.10;99.90
20750;DHT22;10535;50.664;4.564;2023-08-07T01:38:25;12.10;99.90
20750;DHT22;10535;50.664;4.564;2023-08-07T01:40:53;12.10;99.90
20750;DHT22;10535;50.664;4.564;2023-08-07T01:43:21;12.10;99.90
20750;DHT22;10535;50.664;4.564;2023-08-07T01:45:48;12.00;99.90
20750;DHT22;10535;50.664;4.564;2023-08-07T01:48:14;12.00;99.90
20750;DHT22;10535;50.664;4.564;2023-08-07T01:50:40;12.00;99.90
20750;DHT22;10535;50.664;4.564;2023-08-07T01:53:06;11.90;99.90
20750;DHT22;10535;50.664;4.564;2023-08-07T01:55:33;11.80;99.90
20750;DHT22;10535;50.664;4.564;2023-08-07T01:57:59;11.90;99.90
20750;DHT22;10535;50.664;4.564;2023-08-07T02:00:24;11.80;99.90
20750;DHT22;10535;50.664;4.564;2023-08-07T02:02:50;11.80;99.90
20750;DHT22;10535;50.664;4.564;2023-08-07T02:05:17;11.80;99.90
20750;DHT22;10535;50.664;4.564;2023-08-07T02:07:42;11.80;99.90
20750;DHT22;10535;50.664;4.564;2023-08-07T02:10:08;11.80;99.90
20750;DHT22;10535;50.664;4.564;2023-08-07T02:12:34;12.00;99.90
20750;DHT22;10535;50.664;4.564;2023-08-07T02:15:00;11.90;99.90
20750;DHT22;10535;50.664;4.564;2023-08-07T02:17:28;11.90;99.90
20750;DHT22;10535;50.664;4.564;2023-08-07T02:19:58;11.80;99.90
20750;DHT22;10535;50.664;4.564;2023-08-07T02:22:24;11.80;99.90
20750;DHT22;10535;50.664;4.564;2023-08-07T02:24:50;11.80;99.90
20750;DHT22;10535;50.664;4.564;2023-08-07T02:27:17;11.80;99.90
20750;DHT22;10535;50.664;4.564;2023-08-07T02:29:44;11.80;99.90
20750;DHT22;10535;50.664;4.564;2023-08-07T02:32:09;11.80;99.90
20750;DHT22;10535;50.664;4.564;2023-08-07T02:34:35;11.70;99.90
20750;DHT22;10535;50.664;4.564;2023-08-07T02:37:01;11.60;99.90
20750;DHT22;10535;50.664;4.564;2023-08-07T02:39:27;11.60;99.90
20750;DHT22;10535;50.664;4.564;2023-08-07T02:41:52;11.80;99.90
20750;DHT22;10535;50.664;4.564;2023-08-07T02:44:19;11.70;99.90
20750;DHT22;10535;50.664;4.564;2023-08-07T02:46:45;11.70;99.90
20750;DHT22;10535;50.664;4.564;2023-08-07T02:49:11;11.80;99.90
20750;DHT22;10535;50.664;4.564;2023-08-07T02:51:38;11.70;99.90
20750;DHT22;10535;50.664;4.564;2023-08-07T02:54:04;11.70;99.90
20750;DHT22;10535;50.664;4.564;2023-08-07T02:56:29;11.70;99.90
20750;DHT22;10535;50.664;4.564;2023-08-07T02:58:55;11.70;99.90
20750;DHT22;10535;50.664;4.564;2023-08-07T03:01:23;11.70;99.90
20750;DHT22;10535;50.664;4.564;2023-08-07T03:03:49;11.70;99.90
20750;DHT22;10535;50.664;4.564;2023-08-07T03:06:15;11.70;99.90
20750;DHT22;10535;50.664;4.564;2023-08-07T03:08:40;11.80;99.90
20750;DHT22;10535;50.664;4.564;2023-08-07T03:11:07;11.80;99.90
20750;DHT22;10535;50.664;4.564;2023-08-07T03:13:33;11.70;99.90
20750;DHT22;10535;50.664;4.564;2023-08-07T03:16:03;11.60;99.90
20750;DHT22;10535;50.664;4.564;2023-08-07T03:18:30;11.60;99.90
20750;DHT22;10535;50.664;4.564;2023-08-07T03:20:56;11.60;99.90
20750;DHT22;10535;50.664;4.564;2023-08-07T03:23:25;11.60;99.90
20750;DHT22;10535;50.664;4.564;2023-08-07T03:25:51;11.60;99.90
20750;DHT22;10535;50.664;4.564;2023-08-07T03:28:26;11.60;99.90
20750;DHT22;10535;50.664;4.564;2023-08-07T03:30:52;11.50;99.90
20750;DHT22;10535;50.664;4.564;2023-08-07T03:33:17;11.60;99.90
20750;DHT22;10535;50.664;4.564;2023-08-07T03:35:43;11.50;99.90
20750;DHT22;10535;50.664;4.564;2023-08-07T03:38:08;11.60;99.90
20750;DHT22;10535;50.664;4.564;2023-08-07T03:40:34;11.50;99.90
20750;DHT22;10535;50.664;4.564;2023-08-07T03:43:00;11.50;99.90
20750;DHT22;10535;50.664;4.564;2023-08-07T03:45:25;11.50;99.90
20750;DHT22;10535;50.664;4.564;2023-08-07T03:47:51;11.40;99.90
20750;DHT22;10535;50.664;4.564;2023-08-07T03:50:17;11.30;99.90
20750;DHT22;10535;50.664;4.564;2023-08-07T03:52:42;11.40;99.90
20750;DHT22;10535;50.664;4.564;2023-08-07T03:55:08;11.40;99.90
20750;DHT22;10535;50.664;4.564;2023-08-07T03:57:37;11.30;99.90
20750;DHT22;10535;50.664;4.564;2023-08-07T04:00:03;11.30;99.90
20750;DHT22;10535;50.664;4.564;2023-08-07T04:02:32;11.10;99.90
20750;DHT22;10535;50.664;4.564;2023-08-07T04:04:57;11.10;99.90
20750;DHT22;10535;50.664;4.564;2023-08-07T04:07:23;11.30;99.90
20750;DHT22;10535;50.664;4.564;2023-08-07T04:09:48;11.30;99.90
20750;DHT22;10535;50.664;4.564;2023-08-07T04:12:17;11.40;99.90
20750;DHT22;10535;50.664;4.564;2023-08-07T04:14:43;11.30;99.90
20750;DHT22;10535;50.664;4.564;2023-08-07T04:17:08;11.30;99.90
20750;DHT22;10535;50.664;4.564;2023-08-07T04:19:34;11.40;99.90
20750;DHT22;10535;50.664;4.564;2023-08-07T04:22:00;11.50;99.90
20750;DHT22;10535;50.664;4.564;2023-08-07T04:24:25;11.50;99.90
20750;DHT22;10535;50.664;4.564;2023-08-07T04:26:51;11.50;99.90
20750;DHT22;10535;50.664;4.564;2023-08-07T04:29:17;11.50;99.90
20750;DHT22;10535;50.664;4.564;2023-08-07T04:31:42;11.50;99.90
20750;DHT22;10535;50.664;4.564;2023-08-07T04:34:08;11.50;99.90
20750;DHT22;10535;50.664;4.564;2023-08-07T04:36:34;11.50;99.90
20750;DHT22;10535;50.664;4.564;2023-08-07T04:38:59;11.60;99.90
20750;DHT22;10535;50.664;4.564;2023-08-07T04:41:25;11.70;99.90
20750;DHT22;10535;50.664;4.564;2023-08-07T04:43:51;11.70;99.90
20750;DHT22;10535;50.664;4.564;2023-08-07T04:46:16;11.70;99.90
20750;DHT22;10535;50.664;4.564;2023-08-07T04:48:44;11.60;99.90
20750;DHT22;10535;50.664;4.564;2023-08-07T04:51:09;11.70;99.90
20750;DHT22;10535;50.664;4.564;2023-08-07T04:53:35;11.70;99.90
20750;DHT22;10535;50.664;4.564;2023-08-07T04:56:01;11.80;99.90
20750;DHT22;10535;50.664;4.564;2023-08-07T04:58:28;12.00;99.90
20750;DHT22;10535;50.664;4.564;2023-08-07T05:00:56;12.00;99.90
20750;DHT22;10535;50.664;4.564;2023-08-07T05:03:23;12.10;99.90
20750;DHT22;10535;50.664;4.564;2023-08-07T05:05:48;12.00;99.90
20750;DHT22;10535;50.664;4.564;2023-08-07T05:08:14;12.10;99.90
20750;DHT22;10535;50.664;4.564;2023-08-07T05:10:40;12.10;99.90
20750;DHT22;10535;50.664;4.564;2023-08-07T05:13:05;12.10;99.90
20750;DHT22;10535;50.664;4.564;2023-08-07T05:15:31;12.10;99.90
20750;DHT22;10535;50.664;4.564;2023-08-07T05:17:57;12.20;99.90
20750;DHT22;10535;50.664;4.564;2023-08-07T05:20:23;12.10;99.90
20750;DHT22;10535;50.664;4.564;2023-08-07T05:22:49;12.20;99.90
20750;DHT22;10535;50.664;4.564;2023-08-07T05:25:15;12.30;99.90
20750;DHT22;10535;50.664;4.564;2023-08-07T05:27:42;12.30;99.90
20750;DHT22;10535;50.664;4.564;2023-08-07T05:30:08;12.50;99.90
20750;DHT22;10535;50.664;4.564;2023-08-07T05:32:35;12.80;99.90
20750;DHT22;10535;50.664;4.564;2023-08-07T05:35:04;13.10;99.90
20750;DHT22;10535;50.664;4.564;2023-08-07T05:37:30;13.40;99.90
20750;DHT22;10535;50.664;4.564;2023-08-07T05:39:57;13.50;99.90
20750;DHT22;10535;50.664;4.564;2023-08-07T05:42:23;13.40;99.90
20750;DHT22;10535;50.664;4.564;2023-08-07T05:44:48;13.50;99.90
20750;DHT22;10535;50.664;4.564;2023-08-07T05:47:14;13.40;99.90
20750;DHT22;10535;50.664;4.564;2023-08-07T05:49:40;13.50;99.90
20750;DHT22;10535;50.664;4.564;2023-08-07T05:52:07;13.80;99.90
20750;DHT22;10535;50.664;4.564;2023-08-07T05:54:33;13.70;99.90
20750;DHT22;10535;50.664;4.564;2023-08-07T05:56:59;13.70;99.90
20750;DHT22;10535;50.664;4.564;2023-08-07T05:59:24;13.80;99.90
20750;DHT22;10535;50.664;4.564;2023-08-07T06:01:51;13.80;99.90
20750;DHT22;10535;50.664;4.564;2023-08-07T06:04:17;13.80;99.90
20750;DHT22;10535;50.664;4.564;2023-08-07T06:06:42;14.00;99.90
20750;DHT22;10535;50.664;4.564;2023-08-07T06:09:08;14.10;99.90
20750;DHT22;10535;50.664;4.564;2023-08-07T06:11:35;14.20;99.90
20750;DHT22;10535;50.664;4.564;2023-08-07T06:14:01;14.10;99.90
20750;DHT22;10535;50.664;4.564;2023-08-07T06:16:27;14.20;99.90
20750;DHT22;10535;50.664;4.564;2023-08-07T06:18:53;14.20;99.90
20750;DHT22;10535;50.664;4.564;2023-08-07T06:21:19;14.30;99.90
20750;DHT22;10535;50.664;4.564;2023-08-07T06:23:46;14.50;99.90
20750;DHT22;10535;50.664;4.564;2023-08-07T06:26:12;14.50;99.90
20750;DHT22;10535;50.664;4.564;2023-08-07T06:28:38;14.60;99.90
20750;DHT22;10535;50.664;4.564;2023-08-07T06:31:06;14.80;99.90
20750;DHT22;10535;50.664;4.564;2023-08-07T06:33:33;14.80;99.90
20750;DHT22;10535;50.664;4.564;2023-08-07T06:36:00;14.80;99.90
20750;DHT22;10535;50.664;4.564;2023-08-07T06:38:26;14.80;99.90
20750;DHT22;10535;50.664;4.564;2023-08-07T06:40:51;15.00;99.90
20750;DHT22;10535;50.664;4.564;2023-08-07T06:43:17;15.10;99.90
20750;DHT22;10535;50.664;4.564;2023-08-07T06:45:43;15.10;99.90
20750;DHT22;10535;50.664;4.564;2023-08-07T06:48:09;15.40;99.90
20750;DHT22;10535;50.664;4.564;2023-08-07T06:50:36;15.60;99.90
20750;DHT22;10535;50.664;4.564;2023-08-07T06:53:01;15.90;99.90
20750;DHT22;10535;50.664;4.564;2023-08-07T06:55:27;16.40;99.90
20750;DHT22;10535;50.664;4.564;2023-08-07T06:58:01;16.50;99.90
20750;DHT22;10535;50.664;4.564;2023-08-07T07:00:28;16.90;99.90
20750;DHT22;10535;50.664;4.564;2023-08-07T07:02:53;17.10;99.90
20750;DHT22;10535;50.664;4.564;2023-08-07T07:05:19;17.30;99.90
20750;DHT22;10535;50.664;4.564;2023-08-07T07:07:45;17.40;99.90
20750;DHT22;10535;50.664;4.564;2023-08-07T07:10:10;17.50;99.90
20750;DHT22;10535;50.664;4.564;2023-08-07T07:12:36;17.50;99.90
20750;DHT22;10535;50.664;4.564;2023-08-07T07:15:02;17.60;99.90
20750;DHT22;10535;50.664;4.564;2023-08-07T07:17:30;17.80;99.90
20750;DHT22;10535;50.664;4.564;2023-08-07T07:19:56;18.00;99.90
20750;DHT22;10535;50.664;4.564;2023-08-07T07:22:22;18.10;99.90
20750;DHT22;10535;50.664;4.564;2023-08-07T07:24:48;18.00;99.90
20750;DHT22;10535;50.664;4.564;2023-08-07T07:27:14;18.30;99.90
20750;DHT22;10535;50.664;4.564;2023-08-07T07:29:39;18.30;99.90
20750;DHT22;10535;50.664;4.564;2023-08-07T07:32:06;18.30;99.90
20750;DHT22;10535;50.664;4.564;2023-08-07T07:34:31;18.30;99.90
20750;DHT22;10535;50.664;4.564;2023-08-07T07:36:59;18.30;99.90
20750;DHT22;10535;50.664;4.564;2023-08-07T07:39:25;18.10;99.90
20750;DHT22;10535;50.664;4.564;2023-08-07T07:41:51;18.10;99.90
20750;DHT22;10535;50.664;4.564;2023-08-07T07:44:17;18.00;99.90
20750;DHT22;10535;50.664;4.564;2023-08-07T07:46:43;17.60;99.90
20750;DHT22;10535;50.664;4.564;2023-08-07T07:49:09;17.20;99.90
20750;DHT22;10535;50.664;4.564;2023-08-07T07:51:35;17.30;99.90
20750;DHT22;10535;50.664;4.564;2023-08-07T07:54:02;17.40;99.90
20750;DHT22;10535;50.664;4.564;2023-08-07T07:56:28;17.50;99.90
20750;DHT22;10535;50.664;4.564;2023-08-07T07:58:54;17.30;99.90
20750;DHT22;10535;50.664;4.564;2023-08-07T08:01:19;17.20;99.90
20750;DHT22;10535;50.664;4.564;2023-08-07T08:03:45;17.00;99.90
20750;DHT22;10535;50.664;4.564;2023-08-07T08:06:13;16.90;99.90
20750;DHT22;10535;50.664;4.564;2023-08-07T08:08:39;17.10;99.90
20750;DHT22;10535;50.664;4.564;2023-08-07T08:11:05;16.80;99.90
20750;DHT22;10535;50.664;4.564;2023-08-07T08:13:30;17.00;99.90
20750;DHT22;10535;50.664;4.564;2023-08-07T08:15:57;17.20;99.90
20750;DHT22;10535;50.664;4.564;2023-08-07T08:18:23;17.20;99.90
20750;DHT22;10535;50.664;4.564;2023-08-07T08:20:50;17.40;99.90
20750;DHT22;10535;50.664;4.564;2023-08-07T08:23:15;17.50;99.90
20750;DHT22;10535;50.664;4.564;2023-08-07T08:25:41;17.50;99.90
20750;DHT22;10535;50.664;4.564;2023-08-07T08:28:07;17.60;99.90
20750;DHT22;10535;50.664;4.564;2023-08-07T08:30:33;18.10;99.90
20750;DHT22;10535;50.664;4.564;2023-08-07T08:33:00;18.00;99.90
20750;DHT22;10535;50.664;4.564;2023-08-07T08:35:25;18.30;99.90
20750;DHT22;10535;50.664;4.564;2023-08-07T08:37:51;18.40;99.90
20750;DHT22;10535;50.664;4.564;2023-08-07T08:40:17;18.00;99.90
20750;DHT22;10535;50.664;4.564;2023-08-07T08:42:45;17.80;99.90
20750;DHT22;10535;50.664;4.564;2023-08-07T08:45:15;17.80;99.90
20750;DHT22;10535;50.664;4.564;2023-08-07T08:47:45;17.70;99.90
20750;DHT22;10535;50.664;4.564;2023-08-07T08:50:13;17.70;99.90
20750;DHT22;10535;50.664;4.564;2023-08-07T08:52:43;17.80;99.90
20750;DHT22;10535;50.664;4.564;2023-08-07T08:55:10;18.00;99.90
20750;DHT22;10535;50.664;4.564;2023-08-07T08:57:42;18.20;99.90
20750;DHT22;10535;50.664;4.564;2023-08-07T09:00:10;18.20;99.90
20750;DHT22;10535;50.664;4.564;2023-08-07T09:02:47;18.20;99.90
20750;DHT22;10535;50.664;4.564;2023-08-07T09:05:18;18.20;99.90
20750;DHT22;10535;50.664;4.564;2023-08-07T09:07:54;18.20;99.90
20750;DHT22;10535;50.664;4.564;2023-08-07T09:10:22;18.20;99.90
20750;DHT22;10535;50.664;4.564;2023-08-07T09:12:57;18.30;99.90
20750;DHT22;10535;50.664;4.564;2023-08-07T09:15:32;18.30;99.90
20750;DHT22;10535;50.664;4.564;2023-08-07T09:17:59;17.90;99.90
20750;DHT22;10535;50.664;4.564;2023-08-07T09:20:26;18.00;99.90
20750;DHT22;10535;50.664;4.564;2023-08-07T09:22:52;18.10;99.90
20750;DHT22;10535;50.664;4.564;2023-08-07T09:25:28;17.80;99.90
20750;DHT22;10535;50.664;4.564;2023-08-07T09:27:55;18.10;99.90
20750;DHT22;10535;50.664;4.564;2023-08-07T09:30:26;18.20;99.90
20750;DHT22;10535;50.664;4.564;2023-08-07T09:32:58;18.30;99.90
20750;DHT22;10535;50.664;4.564;2023-08-07T09:35:26;18.60;99.90
20750;DHT22;10535;50.664;4.564;2023-08-07T09:37:51;18.50;99.90
20750;DHT22;10535;50.664;4.564;2023-08-07T09:40:20;18.80;99.90
20750;DHT22;10535;50.664;4.564;2023-08-07T09:42:50;19.10;99.90
20750;DHT22;10535;50.664;4.564;2023-08-07T09:45:23;19.00;99.90
20750;DHT22;10535;50.664;4.564;2023-08-07T09:48:04;18.80;99.90
20750;DHT22;10535;50.664;4.564;2023-08-07T09:50:32;18.60;99.90
20750;DHT22;10535;50.664;4.564;2023-08-07T09:52:58;18.50;99.90
20750;DHT22;10535;50.664;4.564;2023-08-07T09:55:32;18.60;99.90
20750;DHT22;10535;50.664;4.564;2023-08-07T09:58:01;18.60;99.90
20750;DHT22;10535;50.664;4.564;2023-08-07T10:00:27;18.40;99.90
20750;DHT22;10535;50.664;4.564;2023-08-07T10:02:58;18.30;99.90
20750;DHT22;10535;50.664;4.564;2023-08-07T10:05:23;18.30;99.90
20750;DHT22;10535;50.664;4.564;2023-08-07T10:07:50;18.50;99.90
20750;DHT22;10535;50.664;4.564;2023-08-07T10:10:17;18.90;99.90
20750;DHT22;10535;50.664;4.564;2023-08-07T10:12:42;18.90;99.90
20750;DHT22;10535;50.664;4.564;2023-08-07T10:15:11;19.00;99.90
20750;DHT22;10535;50.664;4.564;2023-08-07T10:17:37;19.30;99.90
20750;DHT22;10535;50.664;4.564;2023-08-07T10:20:03;19.50;99.90
20750;DHT22;10535;50.664;4.564;2023-08-07T10:22:30;19.30;99.90
20750;DHT22;10535;50.664;4.564;2023-08-07T10:24:58;19.20;99.90
20750;DHT22;10535;50.664;4.564;2023-08-07T10:27:27;19.10;99.90
20750;DHT22;10535;50.664;4.564;2023-08-07T10:29:55;19.00;99.90
20750;DHT22;10535;50.664;4.564;2023-08-07T10:32:25;19.20;99.90
20750;DHT22;10535;50.664;4.564;2023-08-07T10:34:52;19.10;99.90
20750;DHT22;10535;50.664;4.564;2023-08-07T10:37:41;19.20;99.90
20750;DHT22;10535;50.664;4.564;2023-08-07T10:40:08;19.40;99.90
20750;DHT22;10535;50.664;4.564;2023-08-07T10:43:12;19.70;99.90
20750;DHT22;10535;50.664;4.564;2023-08-07T10:45:38;19.70;99.90
20750;DHT22;10535;50.664;4.564;2023-08-07T10:48:11;19.50;99.90
20750;DHT22;10535;50.664;4.564;2023-08-07T10:50:58;19.60;99.90
20750;DHT22;10535;50.664;4.564;2023-08-07T10:53:42;19.60;99.90
20750;DHT22;10535;50.664;4.564;2023-08-07T10:56:11;19.70;99.90
20750;DHT22;10535;50.664;4.564;2023-08-07T10:58:40;19.70;99.90
20750;DHT22;10535;50.664;4.564;2023-08-07T11:04:08;19.90;99.90
20750;DHT22;10535;50.664;4.564;2023-08-07T11:06:36;20.20;99.90
20750;DHT22;10535;50.664;4.564;2023-08-07T11:09:04;20.80;99.90
20750;DHT22;10535;50.664;4.564;2023-08-07T11:11:44;21.00;99.90
20750;DHT22;10535;50.664;4.564;2023-08-07T11:14:18;20.70;99.90
20750;DHT22;10535;50.664;4.564;2023-08-07T11:16:44;20.30;99.90
20750;DHT22;10535;50.664;4.564;2023-08-07T11:19:13;19.80;99.90
20750;DHT22;10535;50.664;4.564;2023-08-07T11:21:41;19.70;99.90
20750;DHT22;10535;50.664;4.564;2023-08-07T11:24:11;20.00;99.90
20750;DHT22;10535;50.664;4.564;2023-08-07T11:26:39;20.20;99.90
20750;DHT22;10535;50.664;4.564;2023-08-07T11:29:05;20.50;99.90
20750;DHT22;10535;50.664;4.564;2023-08-07T11:31:30;20.40;99.90
20750;DHT22;10535;50.664;4.564;2023-08-07T11:33:57;20.30;99.90
20750;DHT22;10535;50.664;4.564;2023-08-07T11:36:25;20.30;99.90
20750;DHT22;10535;50.664;4.564;2023-08-07T11:38:50;20.00;99.90
20750;DHT22;10535;50.664;4.564;2023-08-07T11:41:17;20.10;99.90
20750;DHT22;10535;50.664;4.564;2023-08-07T11:43:43;20.10;99.90
20750;DHT22;10535;50.664;4.564;2023-08-07T11:46:11;20.10;99.90
20750;DHT22;10535;50.664;4.564;2023-08-07T11:48:39;19.90;99.90
20750;DHT22;10535;50.664;4.564;2023-08-07T11:51:06;19.70;99.90
20750;DHT22;10535;50.664;4.564;2023-08-07T11:53:40;19.90;99.90
20750;DHT22;10535;50.664;4.564;2023-08-07T11:56:16;20.40;99.90
20750;DHT22;10535;50.664;4.564;2023-08-07T11:58:47;20.90;99.90
20750;DHT22;10535;50.664;4.564;2023-08-07T12:04:07;21.30;99.90
20750;DHT22;10535;50.664;4.564;2023-08-07T12:06:34;21.20;99.90
20750;DHT22;10535;50.664;4.564;2023-08-07T12:09:02;21.20;99.90
20750;DHT22;10535;50.664;4.564;2023-08-07T12:11:36;20.70;99.90
20750;DHT22;10535;50.664;4.564;2023-08-07T12:14:01;20.90;99.90
20750;DHT22;10535;50.664;4.564;2023-08-07T12:16:32;21.20;99.90
20750;DHT22;10535;50.664;4.564;2023-08-07T12:18:59;21.20;99.90
20750;DHT22;10535;50.664;4.564;2023-08-07T12:21:26;21.30;99.90
20750;DHT22;10535;50.664;4.564;2023-08-07T12:23:56;20.80;99.90
20750;DHT22;10535;50.664;4.564;2023-08-07T12:26:23;20.90;99.90
20750;DHT22;10535;50.664;4.564;2023-08-07T12:28:53;20.80;99.90
20750;DHT22;10535;50.664;4.564;2023-08-07T12:31:21;21.00;99.90
20750;DHT22;10535;50.664;4.564;2023-08-07T12:33:50;21.10;99.90
20750;DHT22;10535;50.664;4.564;2023-08-07T12:36:41;21.30;99.90
20750;DHT22;10535;50.664;4.564;2023-08-07T12:39:10;21.30;99.90
20750;DHT22;10535;50.664;4.564;2023-08-07T12:41:37;20.90;99.90
20750;DHT22;10535;50.664;4.564;2023-08-07T12:44:03;20.90;99.90
20750;DHT22;10535;50.664;4.564;2023-08-07T12:46:29;20.60;99.90
20750;DHT22;10535;50.664;4.564;2023-08-07T12:48:57;21.30;99.90
20750;DHT22;10535;50.664;4.564;2023-08-07T12:51:23;21.50;99.90
20750;DHT22;10535;50.664;4.564;2023-08-07T12:53:55;21.20;99.90
20750;DHT22;10535;50.664;4.564;2023-08-07T12:56:21;21.00;99.90
20750;DHT22;10535;50.664;4.564;2023-08-07T12:58:50;20.90;99.90
20750;DHT22;10535;50.664;4.564;2023-08-07T13:01:16;21.00;99.90
20750;DHT22;10535;50.664;4.564;2023-08-07T13:03:42;21.30;99.90
20750;DHT22;10535;50.664;4.564;2023-08-07T13:06:10;21.40;99.90
20750;DHT22;10535;50.664;4.564;2023-08-07T13:08:39;21.70;99.90
20750;DHT22;10535;50.664;4.564;2023-08-07T13:11:08;21.80;99.90
20750;DHT22;10535;50.664;4.564;2023-08-07T13:13:34;21.70;99.90
20750;DHT22;10535;50.664;4.564;2023-08-07T13:16:00;21.20;99.90
20750;DHT22;10535;50.664;4.564;2023-08-07T13:18:26;20.80;99.90
20750;DHT22;10535;50.664;4.564;2023-08-07T13:20:53;20.60;99.90
20750;DHT22;10535;50.664;4.564;2023-08-07T13:23:18;20.80;99.90
20750;DHT22;10535;50.664;4.564;2023-08-07T13:25:46;21.10;99.90
20750;DHT22;10535;50.664;4.564;2023-08-07T13:28:12;21.30;99.90
20750;DHT22;10535;50.664;4.564;2023-08-07T13:30:43;21.70;99.90
20750;DHT22;10535;50.664;4.564;2023-08-07T13:33:09;21.90;99.90
20750;DHT22;10535;50.664;4.564;2023-08-07T13:35:35;22.00;99.90
20750;DHT22;10535;50.664;4.564;2023-08-07T13:38:00;21.80;99.90
20750;DHT22;10535;50.664;4.564;2023-08-07T13:40:30;21.10;99.90
20750;DHT22;10535;50.664;4.564;2023-08-07T13:42:56;20.80;99.90
20750;DHT22;10535;50.664;4.564;2023-08-07T13:45:24;20.90;99.90
20750;DHT22;10535;50.664;4.564;2023-08-07T13:47:49;21.00;99.90
20750;DHT22;10535;50.664;4.564;2023-08-07T13:50:15;21.10;99.90
20750;DHT22;10535;50.664;4.564;2023-08-07T13:52:41;21.10;99.90
20750;DHT22;10535;50.664;4.564;2023-08-07T13:55:07;21.20;99.90
20750;DHT22;10535;50.664;4.564;2023-08-07T13:57:34;21.20;99.90
20750;DHT22;10535;50.664;4.564;2023-08-07T14:00:00;21.40;99.90
20750;DHT22;10535;50.664;4.564;2023-08-07T14:02:25;21.40;99.90
20750;DHT22;10535;50.664;4.564;2023-08-07T14:04:53;21.40;99.90
20750;DHT22;10535;50.664;4.564;2023-08-07T14:07:23;21.30;99.90
20750;DHT22;10535;50.664;4.564;2023-08-07T14:09:49;21.20;99.90
20750;DHT22;10535;50.664;4.564;2023-08-07T14:12:15;21.50;99.90
20750;DHT22;10535;50.664;4.564;2023-08-07T14:14:41;21.60;99.90
20750;DHT22;10535;50.664;4.564;2023-08-07T14:17:08;21.40;99.90
20750;DHT22;10535;50.664;4.564;2023-08-07T14:19:37;21.40;99.90
20750;DHT22;10535;50.664;4.564;2023-08-07T14:22:04;21.40;99.90
20750;DHT22;10535;50.664;4.564;2023-08-07T14:24:30;21.40;99.90
20750;DHT22;10535;50.664;4.564;2023-08-07T14:26:56;21.50;99.90
20750;DHT22;10535;50.664;4.564;2023-08-07T14:29:23;21.60;99.90
20750;DHT22;10535;50.664;4.564;2023-08-07T14:31:49;21.60;99.90
20750;DHT22;10535;50.664;4.564;2023-08-07T14:34:16;21.80;99.90
20750;DHT22;10535;50.664;4.564;2023-08-07T14:36:41;21.70;99.90
20750;DHT22;10535;50.664;4.564;2023-08-07T14:39:07;21.30;99.90
20750;DHT22;10535;50.664;4.564;2023-08-07T14:41:32;21.20;99.90
20750;DHT22;10535;50.664;4.564;2023-08-07T14:43:58;21.30;99.90
20750;DHT22;10535;50.664;4.564;2023-08-07T14:46:24;21.60;99.90
20750;DHT22;10535;50.664;4.564;2023-08-07T14:48:50;21.40;99.90
20750;DHT22;10535;50.664;4.564;2023-08-07T14:51:15;21.80;99.90
20750;DHT22;10535;50.664;4.564;2023-08-07T14:53:42;21.80;99.90
20750;DHT22;10535;50.664;4.564;2023-08-07T14:56:08;21.70;99.90
20750;DHT22;10535;50.664;4.564;2023-08-07T14:58:34;21.40;99.90
20750;DHT22;10535;50.664;4.564;2023-08-07T15:00:59;21.40;99.90
20750;DHT22;10535;50.664;4.564;2023-08-07T15:03:28;21.40;99.90
20750;DHT22;10535;50.664;4.564;2023-08-07T15:05:54;21.30;99.90
20750;DHT22;10535;50.664;4.564;2023-08-07T15:08:19;21.20;99.90
20750;DHT22;10535;50.664;4.564;2023-08-07T15:10:46;21.00;99.90
20750;DHT22;10535;50.664;4.564;2023-08-07T15:13:12;21.00;99.90
20750;DHT22;10535;50.664;4.564;2023-08-07T15:15:37;21.00;99.90
20750;DHT22;10535;50.664;4.564;2023-08-07T15:18:03;21.30;99.90
20750;DHT22;10535;50.664;4.564;2023-08-07T15:20:33;21.70;99.90
20750;DHT22;10535;50.664;4.564;2023-08-07T15:22:58;22.00;99.90
20750;DHT22;10535;50.664;4.564;2023-08-07T15:25:24;21.70;99.90
20750;DHT22;10535;50.664;4.564;2023-08-07T15:27:50;21.80;99.90
20750;DHT22;10535;50.664;4.564;2023-08-07T15:30:17;22.00;99.90
20750;DHT22;10535;50.664;4.564;2023-08-07T15:32:42;22.10;99.90
20750;DHT22;10535;50.664;4.564;2023-08-07T15:35:08;22.00;99.90
20750;DHT22;10535;50.664;4.564;2023-08-07T15:37:34;21.90;99.90
20750;DHT22;10535;50.664;4.564;2023-08-07T15:39:59;22.20;99.90